Josephine Anne — WDD9858 — position and weather

sailwx.info

Track history (hours):
 
Tides and Currents Weather Stations Pressure Air Temp Water Temp Dewpoint Dewpoint Depression Visibility Wind Speed Wind Dir Waves Ship Positions

Josephine Anne

Owner: E.N. Bisso & Son, Inc., Metairie, LA. More information available from US FCC via Universal Licensing System and Coast Guard Vessel Documentation Center.

Last reported at 2015-Mar-27 00:03 UTC. Time now 2015-Mar-28 01:55 UTC.
Position N 29°55' W 090°08'.

Length 29 m; draft 4.3 m.

Type: Tug. MMSI: 367317270.

Date/timePositionNaut miles runAvg speedWind from/ knotsBaromVisibWave heightAir tempDewpointWater temp
2015-Mar-27 00:03N 29°55' W 090°08'3 2.2
2015-Mar-26 22:32N 29°55' W 090°04'0 0.0
2015-Mar-26 21:09N 29°55' W 090°04'17 6.1
2015-Mar-26 18:17N 29°59' W 090°24'14 1.4
2015-Mar-26 08:06N 29°55' W 090°08'0 0.0
2015-Mar-26 06:06N 29°55' W 090°08'0 0.0
2015-Mar-26 04:29N 29°55' W 090°08'0 0.0
2015-Mar-26 03:30N 29°55' W 090°08'0 0.0
2015-Mar-26 02:28N 29°55' W 090°08'0 0.0
2015-Mar-25 07:15N 29°55' W 090°08'0 0.0
2015-Mar-25 06:32N 29°55' W 090°08'0 0.0
2015-Mar-25 05:30N 29°55' W 090°08'0 0.0
2015-Mar-25 04:20N 29°55' W 090°08'0 0.0
2015-Mar-25 03:18N 29°55' W 090°08'0 0.0
2015-Mar-25 02:32N 29°55' W 090°08'1 0.7
2015-Mar-25 01:17N 29°56' W 090°09'1 1.4
2015-Mar-25 00:28N 29°55' W 090°08'1 1.3
2015-Mar-24 23:29N 29°56' W 090°08'1 0.9
2015-Mar-24 22:27N 29°55' W 090°08'0 0.0
2015-Mar-24 13:18N 29°56' W 090°08'2 2.5
2015-Mar-24 12:31N 29°55' W 090°06'5 4.5
2015-Mar-24 11:30N 29°58' W 090°02'0 0.0
2015-Mar-24 10:31N 29°58' W 090°02'0 0.0
2015-Mar-24 09:33N 29°58' W 090°02'0 0.0
2015-Mar-24 08:33N 29°58' W 090°02'0 0.0
2015-Mar-24 07:32N 29°58' W 090°02'0 0.0
2015-Mar-24 06:33N 29°58' W 090°02'0 0.0
2015-Mar-24 05:30N 29°58' W 090°02'0 0.0
2015-Mar-24 04:33N 29°58' W 090°02'0 0.0
2015-Mar-24 03:32N 29°58' W 090°02'0 0.0
2015-Mar-24 02:32N 29°58' W 090°02'0 0.0
2015-Mar-24 01:28N 29°58' W 090°02'0 0.0
2015-Mar-24 00:32N 29°58' W 090°02'1 0.1
2015-Mar-23 07:32N 29°57' W 090°01'2 2.6
2015-Mar-23 06:33N 29°56' W 089°59'1 0.5
2015-Mar-23 03:30N 29°56' W 089°60'4 4.3
2015-Mar-23 02:28N 29°55' W 090°05'4 4.3
2015-Mar-23 01:33N 29°57' W 090°01'0 0.0
2015-Mar-23 00:30N 29°57' W 090°01'0 0.0
2015-Mar-22 23:19N 29°57' W 090°01'0 0.0
2015-Mar-22 22:25N 29°57' W 090°01'0 0.0
2015-Mar-22 21:33N 29°57' W 090°01'  
2015-Mar-18 15:25N 29°55' W 090°05'1 0.6
2015-Mar-18 13:23N 29°55' W 090°06'0 0.0
2015-Mar-18 12:33N 29°55' W 090°06'0 0.0
2015-Mar-18 11:32N 29°55' W 090°06'4 1.2
2015-Mar-18 08:08N 29°57' W 090°10'8 0.3
2015-Mar-17 07:29N 29°56' W 090°00'1 0.7
2015-Mar-17 05:30N 29°56' W 089°59'  
Track history (hours):
 
Tides and Currents Weather Stations Pressure Air Temp Water Temp Dewpoint Dewpoint Depression Visibility Wind Speed Wind Dir Waves Ship Positions

Josephine Anne

Owner: E.N. Bisso & Son, Inc., Metairie, LA. More information available from US FCC via Universal Licensing System and Coast Guard Vessel Documentation Center.

Last reported at 2015-Mar-27 00:03 UTC. Time now 2015-Mar-28 01:55 UTC.
Position N 29°55' W 090°08'.

Length 29 m; draft 4.3 m.

Type: Tug. MMSI: 367317270.

Date/timePositionNaut miles runAvg speedWind from/ knotsBaromVisibWave heightAir tempDewpointWater temp
2015-Mar-27 00:03N 29°55' W 090°08'3 2.2
2015-Mar-26 22:32N 29°55' W 090°04'0 0.0
2015-Mar-26 21:09N 29°55' W 090°04'17 6.1
2015-Mar-26 18:17N 29°59' W 090°24'14 1.4
2015-Mar-26 08:06N 29°55' W 090°08'0 0.0
2015-Mar-26 06:06N 29°55' W 090°08'0 0.0
2015-Mar-26 04:29N 29°55' W 090°08'0 0.0
2015-Mar-26 03:30N 29°55' W 090°08'0 0.0
2015-Mar-26 02:28N 29°55' W 090°08'0 0.0
2015-Mar-25 07:15N 29°55' W 090°08'0 0.0
2015-Mar-25 06:32N 29°55' W 090°08'0 0.0
2015-Mar-25 05:30N 29°55' W 090°08'0 0.0
2015-Mar-25 04:20N 29°55' W 090°08'0 0.0
2015-Mar-25 03:18N 29°55' W 090°08'0 0.0
2015-Mar-25 02:32N 29°55' W 090°08'1 0.7
2015-Mar-25 01:17N 29°56' W 090°09'1 1.4
2015-Mar-25 00:28N 29°55' W 090°08'1 1.3
2015-Mar-24 23:29N 29°56' W 090°08'1 0.9
2015-Mar-24 22:27N 29°55' W 090°08'0 0.0
2015-Mar-24 13:18N 29°56' W 090°08'2 2.5
2015-Mar-24 12:31N 29°55' W 090°06'5 4.5
2015-Mar-24 11:30N 29°58' W 090°02'0 0.0
2015-Mar-24 10:31N 29°58' W 090°02'0 0.0
2015-Mar-24 09:33N 29°58' W 090°02'0 0.0
2015-Mar-24 08:33N 29°58' W 090°02'0 0.0
2015-Mar-24 07:32N 29°58' W 090°02'0 0.0
2015-Mar-24 06:33N 29°58' W 090°02'0 0.0
2015-Mar-24 05:30N 29°58' W 090°02'0 0.0
2015-Mar-24 04:33N 29°58' W 090°02'0 0.0
2015-Mar-24 03:32N 29°58' W 090°02'0 0.0
2015-Mar-24 02:32N 29°58' W 090°02'0 0.0
2015-Mar-24 01:28N 29°58' W 090°02'0 0.0
2015-Mar-24 00:32N 29°58' W 090°02'1 0.1
2015-Mar-23 07:32N 29°57' W 090°01'2 2.6
2015-Mar-23 06:33N 29°56' W 089°59'1 0.5
2015-Mar-23 03:30N 29°56' W 089°60'4 4.3
2015-Mar-23 02:28N 29°55' W 090°05'4 4.3
2015-Mar-23 01:33N 29°57' W 090°01'0 0.0
2015-Mar-23 00:30N 29°57' W 090°01'0 0.0
2015-Mar-22 23:19N 29°57' W 090°01'0 0.0
2015-Mar-22 22:25N 29°57' W 090°01'0 0.0
2015-Mar-22 21:33N 29°57' W 090°01'  
2015-Mar-18 15:25N 29°55' W 090°05'1 0.6
2015-Mar-18 13:23N 29°55' W 090°06'0 0.0
2015-Mar-18 12:33N 29°55' W 090°06'0 0.0
2015-Mar-18 11:32N 29°55' W 090°06'4 1.2
2015-Mar-18 08:08N 29°57' W 090°10'8 0.3
2015-Mar-17 07:29N 29°56' W 090°00'1 0.7
2015-Mar-17 05:30N 29°56' W 089°59'  

Dump ship's entire track history